Terminal Aerodrome Forecast
Issued by NWS

Home | Current Version | Previous Version | Text Only | Print | Product List | Glossary On
Versions: 1 2 3 4 5 6 7 8 9 10 11 12 13 14 15 16 17
000
FTUS43 KICT 271700
TAFSLN
TAF
KSLN 271725Z 2718/2818 15007KT P6SM VCTS FEW050 OVC090CB
     FM280200 15007KT P6SM VCTS OVC080CB=

USA.gov is the U.S. government's official web portal to all federal, state and local government web resources and services.